sensor_id;sensor_type;location;lat;lon;timestamp;temperature;humidity
21121;DHT22;12519;43.318;21.898;2023-05-07T00:02:29;16.9;76.0
21121;DHT22;12519;43.318;21.898;2023-05-07T00:07:06;16.9;76.0
21121;DHT22;12519;43.318;21.898;2023-05-07T00:11:43;16.8;77.0
21121;DHT22;12519;43.318;21.898;2023-05-07T00:16:19;16.8;77.0
21121;DHT22;12519;43.318;21.898;2023-05-07T00:20:57;16.7;77.0
21121;DHT22;12519;43.318;21.898;2023-05-07T00:25:34;16.7;77.0
21121;DHT22;12519;43.318;21.898;2023-05-07T00:30:13;16.7;77.0
21121;DHT22;12519;43.318;21.898;2023-05-07T00:34:50;16.5;78.0
21121;DHT22;12519;43.318;21.898;2023-05-07T00:39:27;16.5;78.0
21121;DHT22;12519;43.318;21.898;2023-05-07T00:44:04;16.4;78.0
21121;DHT22;12519;43.318;21.898;2023-05-07T00:48:41;16.4;78.0
21121;DHT22;12519;43.318;21.898;2023-05-07T00:53:20;16.3;78.0
21121;DHT22;12519;43.318;21.898;2023-05-07T00:57:57;16.3;78.0
21121;DHT22;12519;43.318;21.898;2023-05-07T01:02:35;16.2;78.0
21121;DHT22;12519;43.318;21.898;2023-05-07T01:07:13;16.2;78.0
21121;DHT22;12519;43.318;21.898;2023-05-07T01:11:53;16.2;78.0
21121;DHT22;12519;43.318;21.898;2023-05-07T01:16:33;16.2;78.0
21121;DHT22;12519;43.318;21.898;2023-05-07T01:21:12;16.2;78.0
21121;DHT22;12519;43.318;21.898;2023-05-07T01:25:55;16.2;78.0
21121;DHT22;12519;43.318;21.898;2023-05-07T01:30:39;16.2;78.0
21121;DHT22;12519;43.318;21.898;2023-05-07T01:35:41;16.2;79.0
21121;DHT22;12519;43.318;21.898;2023-05-07T01:40:27;16.2;79.0
21121;DHT22;12519;43.318;21.898;2023-05-07T01:45:08;16.1;79.0
21121;DHT22;12519;43.318;21.898;2023-05-07T01:49:47;16.1;79.0
21121;DHT22;12519;43.318;21.898;2023-05-07T01:54:27;16.0;79.0
21121;DHT22;12519;43.318;21.898;2023-05-07T01:59:04;16.0;79.0
21121;DHT22;12519;43.318;21.898;2023-05-07T02:03:41;16.0;79.0
21121;DHT22;12519;43.318;21.898;2023-05-07T02:08:18;16.0;79.0
21121;DHT22;12519;43.318;21.898;2023-05-07T02:12:55;15.9;80.0
21121;DHT22;12519;43.318;21.898;2023-05-07T02:17:32;15.9;80.0
21121;DHT22;12519;43.318;21.898;2023-05-07T02:22:10;15.8;80.0
21121;DHT22;12519;43.318;21.898;2023-05-07T02:26:46;15.8;80.0
21121;DHT22;12519;43.318;21.898;2023-05-07T02:31:23;15.8;80.0
21121;DHT22;12519;43.318;21.898;2023-05-07T02:36:09;15.8;80.0
21121;DHT22;12519;43.318;21.898;2023-05-07T02:40:46;15.8;80.0
21121;DHT22;12519;43.318;21.898;2023-05-07T02:45:23;15.8;81.0
21121;DHT22;12519;43.318;21.898;2023-05-07T02:49:59;15.8;81.0
21121;DHT22;12519;43.318;21.898;2023-05-07T02:54:36;15.7;81.0
21121;DHT22;12519;43.318;21.898;2023-05-07T02:59:13;15.7;81.0
21121;DHT22;12519;43.318;21.898;2023-05-07T03:03:50;15.6;82.0
21121;DHT22;12519;43.318;21.898;2023-05-07T03:08:27;15.6;82.0
21121;DHT22;12519;43.318;21.898;2023-05-07T03:13:05;15.6;82.0
21121;DHT22;12519;43.318;21.898;2023-05-07T03:17:41;15.6;82.0
21121;DHT22;12519;43.318;21.898;2023-05-07T03:22:18;15.6;82.0
21121;DHT22;12519;43.318;21.898;2023-05-07T03:26:55;15.6;82.0
21121;DHT22;12519;43.318;21.898;2023-05-07T03:31:31;16.2;82.0
21121;DHT22;12519;43.318;21.898;2023-05-07T03:36:08;16.2;82.0
21121;DHT22;12519;43.318;21.898;2023-05-07T03:40:45;16.2;82.0
21121;DHT22;12519;43.318;21.898;2023-05-07T03:45:21;16.9;83.0
21121;DHT22;12519;43.318;21.898;2023-05-07T03:49:58;16.9;83.0
21121;DHT22;12519;43.318;21.898;2023-05-07T03:54:34;16.3;82.0
21121;DHT22;12519;43.318;21.898;2023-05-07T03:59:12;16.3;82.0
21121;DHT22;12519;43.318;21.898;2023-05-07T04:03:49;15.7;81.0
21121;DHT22;12519;43.318;21.898;2023-05-07T04:08:26;15.7;81.0
21121;DHT22;12519;43.318;21.898;2023-05-07T04:13:03;15.2;83.0
21121;DHT22;12519;43.318;21.898;2023-05-07T04:17:40;15.2;83.0
21121;DHT22;12519;43.318;21.898;2023-05-07T04:22:16;14.7;84.0
21121;DHT22;12519;43.318;21.898;2023-05-07T04:26:53;14.7;84.0
21121;DHT22;12519;43.318;21.898;2023-05-07T04:31:30;14.9;85.0
21121;DHT22;12519;43.318;21.898;2023-05-07T04:36:08;14.9;85.0
21121;DHT22;12519;43.318;21.898;2023-05-07T04:40:45;14.9;85.0
21121;DHT22;12519;43.318;21.898;2023-05-07T04:45:22;15.1;86.0
21121;DHT22;12519;43.318;21.898;2023-05-07T04:49:59;15.1;86.0
21121;DHT22;12519;43.318;21.898;2023-05-07T04:54:36;15.1;85.0
21121;DHT22;12519;43.318;21.898;2023-05-07T04:59:12;15.1;85.0
21121;DHT22;12519;43.318;21.898;2023-05-07T05:03:48;15.1;85.0
21121;DHT22;12519;43.318;21.898;2023-05-07T05:08:25;15.1;85.0
21121;DHT22;12519;43.318;21.898;2023-05-07T05:13:01;15.4;85.0
21121;DHT22;12519;43.318;21.898;2023-05-07T05:17:37;15.4;85.0
21121;DHT22;12519;43.318;21.898;2023-05-07T05:22:14;15.6;84.0
21121;DHT22;12519;43.318;21.898;2023-05-07T05:26:53;15.6;84.0
21121;DHT22;12519;43.318;21.898;2023-05-07T05:31:30;15.6;84.0
21121;DHT22;12519;43.318;21.898;2023-05-07T05:36:10;15.5;84.0
21121;DHT22;12519;43.318;21.898;2023-05-07T05:40:47;15.5;84.0
21121;DHT22;12519;43.318;21.898;2023-05-07T05:45:25;15.4;84.0
21121;DHT22;12519;43.318;21.898;2023-05-07T05:50:03;15.4;84.0
21121;DHT22;12519;43.318;21.898;2023-05-07T05:54:42;15.2;85.0
21121;DHT22;12519;43.318;21.898;2023-05-07T05:59:19;15.2;85.0
21121;DHT22;12519;43.318;21.898;2023-05-07T06:03:57;15.1;86.0
21121;DHT22;12519;43.318;21.898;2023-05-07T06:08:33;15.1;86.0
21121;DHT22;12519;43.318;21.898;2023-05-07T06:13:10;15.4;86.0
21121;DHT22;12519;43.318;21.898;2023-05-07T06:17:46;15.4;86.0
21121;DHT22;12519;43.318;21.898;2023-05-07T06:22:22;15.6;85.0
21121;DHT22;12519;43.318;21.898;2023-05-07T06:26:59;15.6;85.0
21121;DHT22;12519;43.318;21.898;2023-05-07T06:31:35;15.6;85.0
21121;DHT22;12519;43.318;21.898;2023-05-07T06:36:12;15.9;84.0
21121;DHT22;12519;43.318;21.898;2023-05-07T06:40:49;15.9;84.0
21121;DHT22;12519;43.318;21.898;2023-05-07T06:45:26;16.2;83.0
21121;DHT22;12519;43.318;21.898;2023-05-07T06:50:06;16.2;83.0
21121;DHT22;12519;43.318;21.898;2023-05-07T06:54:44;16.4;83.0
21121;DHT22;12519;43.318;21.898;2023-05-07T06:59:21;16.4;83.0
21121;DHT22;12519;43.318;21.898;2023-05-07T07:03:58;16.7;82.0
21121;DHT22;12519;43.318;21.898;2023-05-07T07:08:35;16.7;82.0
21121;DHT22;12519;43.318;21.898;2023-05-07T07:13:11;17.4;82.0
21121;DHT22;12519;43.318;21.898;2023-05-07T07:17:48;17.4;82.0
21121;DHT22;12519;43.318;21.898;2023-05-07T07:22:25;18.1;81.0
21121;DHT22;12519;43.318;21.898;2023-05-07T07:27:02;18.1;81.0
21121;DHT22;12519;43.318;21.898;2023-05-07T07:31:39;18.1;81.0
21121;DHT22;12519;43.318;21.898;2023-05-07T07:36:16;19.0;79.0
21121;DHT22;12519;43.318;21.898;2023-05-07T07:40:52;19.0;79.0
21121;DHT22;12519;43.318;21.898;2023-05-07T07:45:29;19.8;78.0
21121;DHT22;12519;43.318;21.898;2023-05-07T07:50:09;19.8;78.0
21121;DHT22;12519;43.318;21.898;2023-05-07T07:54:45;20.3;77.0
21121;DHT22;12519;43.318;21.898;2023-05-07T07:59:21;20.3;77.0
21121;DHT22;12519;43.318;21.898;2023-05-07T08:03:58;20.8;76.0
21121;DHT22;12519;43.318;21.898;2023-05-07T08:08:35;20.8;76.0
21121;DHT22;12519;43.318;21.898;2023-05-07T08:13:11;21.2;75.0
21121;DHT22;12519;43.318;21.898;2023-05-07T08:17:48;21.2;75.0
21121;DHT22;12519;43.318;21.898;2023-05-07T08:22:24;21.7;73.0
21121;DHT22;12519;43.318;21.898;2023-05-07T08:27:01;21.7;73.0
21121;DHT22;12519;43.318;21.898;2023-05-07T08:31:38;21.7;73.0
21121;DHT22;12519;43.318;21.898;2023-05-07T08:36:15;22.0;73.0
21121;DHT22;12519;43.318;21.898;2023-05-07T08:40:52;22.0;73.0
21121;DHT22;12519;43.318;21.898;2023-05-07T08:45:34;22.2;73.0
21121;DHT22;12519;43.318;21.898;2023-05-07T08:50:12;22.2;73.0
21121;DHT22;12519;43.318;21.898;2023-05-07T08:54:49;22.4;73.0
21121;DHT22;12519;43.318;21.898;2023-05-07T08:59:26;22.4;73.0
21121;DHT22;12519;43.318;21.898;2023-05-07T09:04:04;22.5;73.0
21121;DHT22;12519;43.318;21.898;2023-05-07T09:08:49;22.5;73.0
21121;DHT22;12519;43.318;21.898;2023-05-07T09:13:29;22.6;73.0
21121;DHT22;12519;43.318;21.898;2023-05-07T09:18:05;22.6;73.0
21121;DHT22;12519;43.318;21.898;2023-05-07T09:22:42;22.7;72.0
21121;DHT22;12519;43.318;21.898;2023-05-07T09:27:19;22.7;72.0
21121;DHT22;12519;43.318;21.898;2023-05-07T09:31:56;22.7;72.0
21121;DHT22;12519;43.318;21.898;2023-05-07T09:36:33;22.8;71.0
21121;DHT22;12519;43.318;21.898;2023-05-07T09:41:13;22.8;71.0
21121;DHT22;12519;43.318;21.898;2023-05-07T09:45:50;23.0;70.0
21121;DHT22;12519;43.318;21.898;2023-05-07T09:50:48;23.0;70.0
21121;DHT22;12519;43.318;21.898;2023-05-07T09:55:33;23.2;70.0
21121;DHT22;12519;43.318;21.898;2023-05-07T10:00:15;23.2;70.0
21121;DHT22;12519;43.318;21.898;2023-05-07T10:04:57;23.3;69.0
21121;DHT22;12519;43.318;21.898;2023-05-07T10:09:37;23.3;69.0
21121;DHT22;12519;43.318;21.898;2023-05-07T10:14:17;23.5;69.0
21121;DHT22;12519;43.318;21.898;2023-05-07T10:18:59;23.5;69.0
21121;DHT22;12519;43.318;21.898;2023-05-07T10:23:38;23.6;68.0
21121;DHT22;12519;43.318;21.898;2023-05-07T10:28:24;23.6;68.0
21121;DHT22;12519;43.318;21.898;2023-05-07T10:33:13;23.7;67.0
21121;DHT22;12519;43.318;21.898;2023-05-07T10:37:53;23.7;67.0
21121;DHT22;12519;43.318;21.898;2023-05-07T10:42:29;23.8;67.0
21121;DHT22;12519;43.318;21.898;2023-05-07T10:47:12;23.8;67.0
21121;DHT22;12519;43.318;21.898;2023-05-07T10:52:17;24.1;66.0
21121;DHT22;12519;43.318;21.898;2023-05-07T10:56:56;24.1;66.0
21121;DHT22;12519;43.318;21.898;2023-05-07T11:02:10;24.1;66.0
21121;DHT22;12519;43.318;21.898;2023-05-07T11:07:30;24.4;66.0
21121;DHT22;12519;43.318;21.898;2023-05-07T11:12:07;24.4;66.0
21121;DHT22;12519;43.318;21.898;2023-05-07T11:16:45;24.4;65.0
21121;DHT22;12519;43.318;21.898;2023-05-07T11:21:41;24.4;65.0
21121;DHT22;12519;43.318;21.898;2023-05-07T11:26:20;24.5;64.0
21121;DHT22;12519;43.318;21.898;2023-05-07T11:30:59;24.5;64.0
21121;DHT22;12519;43.318;21.898;2023-05-07T11:35:38;24.7;64.0
21121;DHT22;12519;43.318;21.898;2023-05-07T11:40:15;24.7;64.0
21121;DHT22;12519;43.318;21.898;2023-05-07T11:44:51;24.9;63.0
21121;DHT22;12519;43.318;21.898;2023-05-07T11:49:28;24.9;63.0
21121;DHT22;12519;43.318;21.898;2023-05-07T11:54:08;25.0;62.0
21121;DHT22;12519;43.318;21.898;2023-05-07T11:58:48;25.0;62.0
21121;DHT22;12519;43.318;21.898;2023-05-07T12:03:25;25.2;61.0
21121;DHT22;12519;43.318;21.898;2023-05-07T12:08:03;25.2;61.0
21121;DHT22;12519;43.318;21.898;2023-05-07T12:12:41;25.4;60.0
21121;DHT22;12519;43.318;21.898;2023-05-07T12:17:22;25.4;60.0
21121;DHT22;12519;43.318;21.898;2023-05-07T12:22:02;25.4;60.0
21121;DHT22;12519;43.318;21.898;2023-05-07T12:26:40;25.5;59.0
21121;DHT22;12519;43.318;21.898;2023-05-07T12:31:18;25.5;59.0
21121;DHT22;12519;43.318;21.898;2023-05-07T12:35:56;25.6;58.0
21121;DHT22;12519;43.318;21.898;2023-05-07T12:40:41;25.6;58.0
21121;DHT22;12519;43.318;21.898;2023-05-07T12:45:21;25.8;57.0
21121;DHT22;12519;43.318;21.898;2023-05-07T12:49:59;25.8;57.0
21121;DHT22;12519;43.318;21.898;2023-05-07T12:54:38;25.8;57.0
21121;DHT22;12519;43.318;21.898;2023-05-07T12:59:15;25.8;57.0
21121;DHT22;12519;43.318;21.898;2023-05-07T13:03:51;25.9;56.0
21121;DHT22;12519;43.318;21.898;2023-05-07T13:08:34;25.9;56.0
21121;DHT22;12519;43.318;21.898;2023-05-07T13:13:10;25.9;56.0
21121;DHT22;12519;43.318;21.898;2023-05-07T13:17:46;25.9;56.0
21121;DHT22;12519;43.318;21.898;2023-05-07T13:22:22;25.9;56.0
21121;DHT22;12519;43.318;21.898;2023-05-07T13:26:59;25.9;56.0
21121;DHT22;12519;43.318;21.898;2023-05-07T13:31:35;25.9;56.0
21121;DHT22;12519;43.318;21.898;2023-05-07T13:36:12;26.0;56.0
21121;DHT22;12519;43.318;21.898;2023-05-07T13:40:48;26.0;56.0
21121;DHT22;12519;43.318;21.898;2023-05-07T13:45:25;26.0;56.0
21121;DHT22;12519;43.318;21.898;2023-05-07T13:50:03;26.0;56.0
21121;DHT22;12519;43.318;21.898;2023-05-07T13:54:43;26.0;56.0
21121;DHT22;12519;43.318;21.898;2023-05-07T13:59:19;26.0;56.0
21121;DHT22;12519;43.318;21.898;2023-05-07T14:03:57;26.1;56.0
21121;DHT22;12519;43.318;21.898;2023-05-07T14:08:33;26.1;56.0
21121;DHT22;12519;43.318;21.898;2023-05-07T14:13:10;26.0;56.0
21121;DHT22;12519;43.318;21.898;2023-05-07T14:17:46;26.0;56.0
21121;DHT22;12519;43.318;21.898;2023-05-07T14:22:23;26.0;56.0
21121;DHT22;12519;43.318;21.898;2023-05-07T14:27:00;25.9;56.0
21121;DHT22;12519;43.318;21.898;2023-05-07T14:31:36;25.9;56.0
21121;DHT22;12519;43.318;21.898;2023-05-07T14:36:13;25.8;56.0
21121;DHT22;12519;43.318;21.898;2023-05-07T14:40:49;25.8;56.0
21121;DHT22;12519;43.318;21.898;2023-05-07T14:45:26;25.7;56.0
21121;DHT22;12519;43.318;21.898;2023-05-07T14:50:04;25.7;56.0
21121;DHT22;12519;43.318;21.898;2023-05-07T14:54:41;25.6;56.0
21121;DHT22;12519;43.318;21.898;2023-05-07T14:59:20;25.6;56.0
21121;DHT22;12519;43.318;21.898;2023-05-07T15:03:57;25.5;56.0
21121;DHT22;12519;43.318;21.898;2023-05-07T15:08:33;25.5;56.0
21121;DHT22;12519;43.318;21.898;2023-05-07T15:13:12;25.4;57.0
21121;DHT22;12519;43.318;21.898;2023-05-07T15:17:49;25.4;57.0
21121;DHT22;12519;43.318;21.898;2023-05-07T15:22:26;25.4;57.0
21121;DHT22;12519;43.318;21.898;2023-05-07T15:27:03;25.4;57.0
21121;DHT22;12519;43.318;21.898;2023-05-07T15:31:39;25.4;57.0
21121;DHT22;12519;43.318;21.898;2023-05-07T15:36:16;25.2;57.0
21121;DHT22;12519;43.318;21.898;2023-05-07T15:40:52;25.2;57.0
21121;DHT22;12519;43.318;21.898;2023-05-07T15:45:29;25.0;57.0
21121;DHT22;12519;43.318;21.898;2023-05-07T15:50:08;25.0;57.0
21121;DHT22;12519;43.318;21.898;2023-05-07T15:54:45;24.9;57.0
21121;DHT22;12519;43.318;21.898;2023-05-07T15:59:21;24.9;57.0
21121;DHT22;12519;43.318;21.898;2023-05-07T16:03:57;24.8;58.0
21121;DHT22;12519;43.318;21.898;2023-05-07T16:08:34;24.8;58.0
21121;DHT22;12519;43.318;21.898;2023-05-07T16:13:10;24.8;57.0
21121;DHT22;12519;43.318;21.898;2023-05-07T16:17:47;24.8;57.0
21121;DHT22;12519;43.318;21.898;2023-05-07T16:22:25;24.8;57.0
21121;DHT22;12519;43.318;21.898;2023-05-07T16:27:01;24.7;56.0
21121;DHT22;12519;43.318;21.898;2023-05-07T16:31:38;24.7;56.0
21121;DHT22;12519;43.318;21.898;2023-05-07T16:36:15;24.6;57.0
21121;DHT22;12519;43.318;21.898;2023-05-07T16:40:52;24.6;57.0
21121;DHT22;12519;43.318;21.898;2023-05-07T16:45:29;24.5;57.0
21121;DHT22;12519;43.318;21.898;2023-05-07T16:50:08;24.5;57.0
21121;DHT22;12519;43.318;21.898;2023-05-07T16:54:46;24.4;59.0
21121;DHT22;12519;43.318;21.898;2023-05-07T16:59:23;24.4;59.0
21121;DHT22;12519;43.318;21.898;2023-05-07T17:03:59;24.2;61.0
21121;DHT22;12519;43.318;21.898;2023-05-07T17:08:36;24.2;61.0
21121;DHT22;12519;43.318;21.898;2023-05-07T17:13:12;24.0;62.0
21121;DHT22;12519;43.318;21.898;2023-05-07T17:17:49;24.0;62.0
21121;DHT22;12519;43.318;21.898;2023-05-07T17:22:26;24.0;62.0
21121;DHT22;12519;43.318;21.898;2023-05-07T17:27:03;23.9;63.0
21121;DHT22;12519;43.318;21.898;2023-05-07T17:31:39;23.9;63.0
21121;DHT22;12519;43.318;21.898;2023-05-07T17:36:16;23.7;64.0
21121;DHT22;12519;43.318;21.898;2023-05-07T17:40:53;23.7;64.0
21121;DHT22;12519;43.318;21.898;2023-05-07T17:45:31;23.5;65.0
21121;DHT22;12519;43.318;21.898;2023-05-07T17:50:11;23.5;65.0
21121;DHT22;12519;43.318;21.898;2023-05-07T17:54:49;23.5;65.0
21121;DHT22;12519;43.318;21.898;2023-05-07T17:59:25;23.5;65.0
21121;DHT22;12519;43.318;21.898;2023-05-07T18:13:16;22.9;68.0
21121;DHT22;12519;43.318;21.898;2023-05-07T18:17:53;22.9;68.0
21121;DHT22;12519;43.318;21.898;2023-05-07T18:22:29;22.9;68.0
21121;DHT22;12519;43.318;21.898;2023-05-07T18:27:05;22.9;68.0
21121;DHT22;12519;43.318;21.898;2023-05-07T18:31:41;22.9;68.0
21121;DHT22;12519;43.318;21.898;2023-05-07T18:36:18;22.8;69.0
21121;DHT22;12519;43.318;21.898;2023-05-07T18:41:02;22.8;69.0
21121;DHT22;12519;43.318;21.898;2023-05-07T18:45:38;22.7;70.0
21121;DHT22;12519;43.318;21.898;2023-05-07T18:50:15;22.7;70.0
21121;DHT22;12519;43.318;21.898;2023-05-07T18:54:51;22.5;70.0
21121;DHT22;12519;43.318;21.898;2023-05-07T18:59:28;22.5;70.0
21121;DHT22;12519;43.318;21.898;2023-05-07T19:04:05;22.4;70.0
21121;DHT22;12519;43.318;21.898;2023-05-07T19:08:41;22.4;70.0
21121;DHT22;12519;43.318;21.898;2023-05-07T19:13:18;22.2;71.0
21121;DHT22;12519;43.318;21.898;2023-05-07T19:17:55;22.2;71.0
21121;DHT22;12519;43.318;21.898;2023-05-07T19:22:32;22.2;71.0
21121;DHT22;12519;43.318;21.898;2023-05-07T19:27:08;22.0;71.0
21121;DHT22;12519;43.318;21.898;2023-05-07T19:31:45;22.0;71.0
21121;DHT22;12519;43.318;21.898;2023-05-07T19:36:22;21.9;71.0
21121;DHT22;12519;43.318;21.898;2023-05-07T19:40:59;21.9;71.0
21121;DHT22;12519;43.318;21.898;2023-05-07T19:45:35;21.8;72.0
21121;DHT22;12519;43.318;21.898;2023-05-07T19:50:12;21.8;72.0
21121;DHT22;12519;43.318;21.898;2023-05-07T19:54:49;21.7;72.0
21121;DHT22;12519;43.318;21.898;2023-05-07T19:59:26;21.7;72.0
21121;DHT22;12519;43.318;21.898;2023-05-07T20:04:04;21.6;72.0
21121;DHT22;12519;43.318;21.898;2023-05-07T20:08:41;21.6;72.0
21121;DHT22;12519;43.318;21.898;2023-05-07T20:13:18;21.6;72.0
21121;DHT22;12519;43.318;21.898;2023-05-07T20:17:55;21.5;73.0
21121;DHT22;12519;43.318;21.898;2023-05-07T20:22:32;21.5;73.0
21121;DHT22;12519;43.318;21.898;2023-05-07T20:27:09;21.4;73.0
21121;DHT22;12519;43.318;21.898;2023-05-07T20:31:45;21.4;73.0
21121;DHT22;12519;43.318;21.898;2023-05-07T20:36:22;21.2;74.0
21121;DHT22;12519;43.318;21.898;2023-05-07T20:41:06;21.2;74.0
21121;DHT22;12519;43.318;21.898;2023-05-07T20:45:46;21.1;74.0
21121;DHT22;12519;43.318;21.898;2023-05-07T20:50:25;21.1;74.0
21121;DHT22;12519;43.318;21.898;2023-05-07T20:55:05;21.0;75.0
21121;DHT22;12519;43.318;21.898;2023-05-07T20:59:43;21.0;75.0
21121;DHT22;12519;43.318;21.898;2023-05-07T21:04:20;20.8;75.0
21121;DHT22;12519;43.318;21.898;2023-05-07T21:08:56;20.8;75.0
21121;DHT22;12519;43.318;21.898;2023-05-07T21:13:32;20.5;76.0
21121;DHT22;12519;43.318;21.898;2023-05-07T21:18:09;20.5;76.0
21121;DHT22;12519;43.318;21.898;2023-05-07T21:22:45;20.5;76.0
21121;DHT22;12519;43.318;21.898;2023-05-07T21:27:22;20.1;77.0
21121;DHT22;12519;43.318;21.898;2023-05-07T21:31:59;20.1;77.0
21121;DHT22;12519;43.318;21.898;2023-05-07T21:36:36;20.0;78.0
21121;DHT22;12519;43.318;21.898;2023-05-07T21:41:13;20.0;78.0
21121;DHT22;12519;43.318;21.898;2023-05-07T21:45:50;19.8;79.0
21121;DHT22;12519;43.318;21.898;2023-05-07T21:50:27;19.8;79.0
21121;DHT22;12519;43.318;21.898;2023-05-07T21:55:07;19.8;79.0
21121;DHT22;12519;43.318;21.898;2023-05-07T21:59:45;19.8;79.0
21121;DHT22;12519;43.318;21.898;2023-05-07T22:04:22;19.8;79.0
21121;DHT22;12519;43.318;21.898;2023-05-07T22:08:59;19.8;79.0
21121;DHT22;12519;43.318;21.898;2023-05-07T22:13:35;19.6;80.0
21121;DHT22;12519;43.318;21.898;2023-05-07T22:18:12;19.6;80.0
21121;DHT22;12519;43.318;21.898;2023-05-07T22:22:55;19.6;80.0
21121;DHT22;12519;43.318;21.898;2023-05-07T22:27:31;19.5;80.0
21121;DHT22;12519;43.318;21.898;2023-05-07T22:32:08;19.5;80.0
21121;DHT22;12519;43.318;21.898;2023-05-07T22:36:44;19.3;81.0
21121;DHT22;12519;43.318;21.898;2023-05-07T22:41:21;19.3;81.0
21121;DHT22;12519;43.318;21.898;2023-05-07T22:45:59;19.1;82.0
21121;DHT22;12519;43.318;21.898;2023-05-07T22:50:38;19.1;82.0
21121;DHT22;12519;43.318;21.898;2023-05-07T22:55:16;19.0;82.0
21121;DHT22;12519;43.318;21.898;2023-05-07T22:59:55;19.0;82.0
21121;DHT22;12519;43.318;21.898;2023-05-07T23:04:32;18.9;82.0
21121;DHT22;12519;43.318;21.898;2023-05-07T23:09:09;18.9;82.0
21121;DHT22;12519;43.318;21.898;2023-05-07T23:13:46;18.8;82.0
21121;DHT22;12519;43.318;21.898;2023-05-07T23:18:22;18.8;82.0
21121;DHT22;12519;43.318;21.898;2023-05-07T23:22:59;18.8;82.0
21121;DHT22;12519;43.318;21.898;2023-05-07T23:27:36;18.6;83.0
21121;DHT22;12519;43.318;21.898;2023-05-07T23:32:13;18.6;83.0
21121;DHT22;12519;43.318;21.898;2023-05-07T23:36:50;18.5;83.0
21121;DHT22;12519;43.318;21.898;2023-05-07T23:41:26;18.5;83.0
21121;DHT22;12519;43.318;21.898;2023-05-07T23:46:03;18.4;83.0
21121;DHT22;12519;43.318;21.898;2023-05-07T23:50:39;18.4;83.0
21121;DHT22;12519;43.318;21.898;2023-05-07T23:55:16;18.3;83.0
21121;DHT22;12519;43.318;21.898;2023-05-07T23:59:53;18.3;83.0
